Terminal Aerodrome Forecast
Issued by NWS

Home | Current Version | Previous Version | Text Only | Print | Product List | Glossary On
Versions: 1 2 3 4 5 6 7 8 9 10 11 12 13 14
000
FTUS46 KSEW 261120
TAFHQM
TAF
KHQM 261120Z 2612/2712 27008KT 5SM BR OVC010
     FM261800 24010KT 6SM BR OVC015
     FM262000 26014KT P6SM SCT020
      TEMPO 2621/2624 BKN020=

USA.gov is the U.S. government's official web portal to all federal, state and local government web resources and services.